METAR Data
IDs: Format: Raw Decoded Include TAF

Data at: 0828 UTC 20 Sep 2018

PAQH 200746Z AUTO 19013KT 6SM BR FEW009 BKN016 OVC022 10/09 A3025 RMK AO2 RAB32E41 P0000
PAQH 200656Z AUTO 19012KT 10SM SCT016 BKN021 11/08 A3026 RMK AO2 SLP246 T01060083
PAQH 200648Z AUTO 20011KT 10SM SCT016 BKN021 BKN075 11/08 A3026 RMK AO2
PAQH 200625Z AUTO 20011KT 10SM SCT018 OVC075 11/08 A3026 RMK AO2
PAQH 200556Z AUTO 21011KT 10SM BKN018 OVC044 11/08 A3027 RMK AO2 SLP250 60001 T01060083 10117 20106 58005
PAQH 200548Z AUTO 21010KT 10SM BKN016 OVC042 11/09 A3027 RMK AO2
PAQH 200509Z AUTO 22011KT 10SM FEW014 OVC036 11/09 A3027 RMK AO2
PAQH 200456Z AUTO 22012KT 10SM SCT014 BKN023 OVC034 11/09 A3027 RMK AO2 RAE09B25E52 SLP252 P0000 T01060089
PAQH 200413Z AUTO 23014KT 10SM FEW014 BKN019 OVC044 11/08 A3028 RMK AO2 RAE09 P0000
PAQH 200356Z AUTO 23011KT 10SM -RA FEW012 BKN036 OVC044 11/09 A3028 RMK AO2 RAE24B44 SLP254 P0000 T01060094
PAQH 200305Z AUTO 23008KT 10SM -RA FEW010 SCT020 OVC030 11/09 A3028 RMK AO2 P0000
PAQH 200256Z AUTO 24010KT 10SM -RA SCT010 BKN025 OVC032 11/09 A3028 RMK AO2 SLP255 P0001 60001 T01060089 56007
PAQH 200242Z AUTO 21007KT 9SM -RA BKN010 BKN017 OVC037 11/10 A3028 RMK AO2 CIG 007V012 P0000
PAQH 200137Z AUTO 24011KT 10SM -RA FEW010 BKN034 OVC047 11/09 A3029 RMK AO2 RAB12 P0000
PAQH 200109Z AUTO 23013KT 10SM BKN010 OVC033 11/09 A3029 RMK AO2 CIG 008V017
PAQH 200056Z AUTO 24011KT 10SM FEW012 SCT027 OVC031 12/09 A3029 RMK AO2 RAB33E48 SLP257 P0000 T01170094
PAQH 200026Z AUTO 24010KT 10SM FEW008 BKN018 OVC026 11/09 A3030 RMK AO2
PAQH 192356Z AUTO 23012KT 10SM BKN013 BKN019 OVC048 12/09 A3030 RMK AO2 SLP262 60000 T01170094 10117 20100 56005
PAQH 192343Z AUTO 23011KT 10SM SCT012 BKN024 OVC041 12/09 A3031 RMK AO2
PAQH 192256Z AUTO 23010KT 10SM BKN010 BKN028 OVC040 12/09 A3031 RMK AO2 CIG 009V015 SLP263 T01170094
PAQH 192156Z AUTO 20011KT 7SM BKN006 BKN011 OVC019 11/10 A3031 RMK AO2 RAB21E38 CIG 003V008 SLP263 P0000 T01110100
PAQH 192127Z AUTO 20011KT 3SM -RA BR FEW004 BKN009 OVC017 11/09 A3031 RMK AO2 RAB21 CIG 006V012 P0000
PAQH 192117Z AUTO 20012KT 3SM BR SCT007 BKN011 OVC019 11/09 A3032 RMK AO2
PAQH 192110Z AUTO 19012KT 3SM BR SCT008 BKN019 OVC023 10/09 A3032 RMK AO2
PAQH 192106Z AUTO 19013KT 2 1/2SM BR FEW013 BKN019 OVC023 11/09 A3032 RMK AO2
PAQH 192056Z AUTO 20011KT 8SM SCT017 OVC023 11/09 A3032 RMK AO2 SLP267 T01060089 58007
PAQH 192041Z AUTO 21010KT 10SM SCT016 BKN026 OVC030 11/08 A3032 RMK AO2
PAQH 191956Z AUTO 20010KT 10SM BKN016 BKN025 OVC042 11/08 A3033 RMK AO2 SLP272 T01110083
PAQH 191947Z AUTO 21010KT 10SM BKN016 BKN028 OVC042 11/08 A3033 RMK AO2
PAQH 191856Z AUTO 22008KT 10SM FEW018 BKN033 OVC047 11/08 A3033 RMK AO2 SLP270 T01060083
PAQH 191756Z AUTO 15003KT 10SM FEW022 BKN029 OVC043 10/09 A3034 RMK AO2 RAE11 SLP274 P0000 60000 T01000089 10100 20089 58005
PAQH 191740Z AUTO 17003KT 10SM FEW022 BKN031 OVC044 09/08 A3034 RMK AO2 RAE11 P0000
PAQH 191707Z AUTO 23007KT 6SM -RA BR FEW011 BKN026 OVC037 09/08 A3035 RMK AO2 P0000
PAQH 191656Z AUTO 23009KT 3SM -RA BR FEW011 SCT017 OVC037 09/08 A3035 RMK AO2 RAB49 SLP279 P0000 T00890078
PAQH 191651Z AUTO 23009KT 4SM -RA BR SCT011 BKN017 OVC038 09/08 A3036 RMK AO2 RAB49 P0000
PAQH 191644Z AUTO 23013KT 8SM BKN014 BKN025 OVC038 10/08 A3036 RMK AO2
PAQH 191556Z AUTO 22008KT 10SM SCT041 OVC049 09/08 A3035 RMK AO2 SLP279 T00940078
PAQH 191539Z AUTO VRB03KT 10SM FEW016 BKN036 OVC044 09/08 A3035 RMK AO2
PAQH 191456Z AUTO 00000KT 10SM BKN018 OVC025 09/08 A3035 RMK AO2 SLP279 T00890078 55002
PAQH 191356Z AUTO 00000KT 10SM OVC020 09/08 A3035 RMK AO2 SLP277 T00890078
PAQH 191317Z AUTO 00000KT 10SM OVC028 09/08 A3035 RMK AO2
PAQH 191256Z AUTO 29005KT 10SM FEW026 OVC033 09/08 A3036 RMK AO2 SLP280 T00940078
PAQH 191251Z AUTO 29004KT 10SM FEW026 OVC033 09/08 A3036 RMK AO2
PAQH 191223Z AUTO 27005KT 10SM BKN018 BKN027 OVC042 09/08 A3036 RMK AO2
PAQH 191156Z AUTO 30003KT 10SM FEW018 BKN033 OVC040 09/08 A3036 RMK AO2 SLP281 T00940078 10100 20089 52000
PAQH 191110Z AUTO 29004KT 10SM FEW027 OVC035 09/08 A3036 RMK AO2
PAQH 191056Z AUTO 29004KT 10SM FEW016 BKN027 OVC038 09/08 A3036 RMK AO2 SLP280 T00940083
PAQH 191030Z AUTO 27004KT 10SM SCT016 BKN029 OVC040 10/08 A3036 RMK AO2
PAQH 190956Z AUTO 22004KT 10SM FEW016 BKN043 BKN090 10/08 A3036 RMK AO2 SLP281 T01000078
PAQH 190856Z AUTO 30005KT 10SM OVC047 10/08 A3036 RMK AO2 SLP280 T01000078 401280028 50001
PAQH 190756Z AUTO 28005KT 10SM FEW016 OVC047 10/08 A3036 RMK AO2 SLP281 T01000083
PAQH 190656Z AUTO 28005KT 10SM OVC047 09/08 A3036 RMK AO2 SLP280 T00940078
PAQH 190556Z AUTO 29005KT 10SM OVC049 09/08 A3035 RMK AO2 SLP279 T00940078 10128 20089 53007
PAQH 190356Z AUTO 25007KT 10SM FEW050 12/07 A3034 RMK AO2 SLP273 T01170072
PAQH 190256Z AUTO 25008KT 10SM SCT050 12/07 A3033 RMK AO2 SLP272 T01220072 56002
PAQH 190156Z AUTO 26009KT 10SM SCT025 OVC041 13/07 A3034 RMK AO2 SLP273 T01280072
PAQH 190056Z AUTO 27011KT 10SM BKN045 12/07 A3033 RMK AO2 SLP272 T01220072
PAQH 182356Z AUTO 32006KT 10SM SCT045 12/06 A3034 RMK AO2 SLP274 T01220056 10128 20072 50002
PAQH 182256Z AUTO 29008KT 10SM SCT037 BKN045 11/06 A3034 RMK AO2 SLP275 T01110061
PAQH 182223Z AUTO 29012KT 10SM SCT022 SCT036 BKN049 12/08 A3034 RMK AO2
PAQH 182156Z AUTO 30009KT 10SM FEW010 BKN016 OVC033 11/08 A3034 RMK AO2 SLP274 T01110083
PAQH 182143Z AUTO 27006KT 10SM SCT010 BKN014 OVC032 11/09 A3034 RMK AO2
PAQH 182111Z AUTO 27007KT 10SM SCT008 BKN015 BKN025 11/09 A3034 RMK AO2
PAQH 182056Z AUTO 30004KT 10SM BKN008 10/09 A3033 RMK AO2 CIG 005V012 SLP272 T01000089 53007
PAQH 182038Z AUTO 29005KT 10SM OVC005 09/09 A3034 RMK AO2 CIG 003V010